sensor_id;sensor_type;location;lat;lon;timestamp;P1;durP1;ratioP1;P2;durP2;ratioP2
76167;SDS011;64927;48.214;16.378;2023-08-30T00:00:19;0.40;;;0.30;;
76167;SDS011;64927;48.214;16.378;2023-08-30T00:02:48;0.50;;;0.50;;
76167;SDS011;64927;48.214;16.378;2023-08-30T00:05:14;0.32;;;0.32;;
76167;SDS011;64927;48.214;16.378;2023-08-30T00:07:39;0.90;;;0.80;;
76167;SDS011;64927;48.214;16.378;2023-08-30T00:10:06;0.90;;;0.70;;
76167;SDS011;64927;48.214;16.378;2023-08-30T00:12:35;1.33;;;0.80;;
76167;SDS011;64927;48.214;16.378;2023-08-30T00:15:01;0.55;;;0.50;;
76167;SDS011;64927;48.214;16.378;2023-08-30T00:17:29;0.70;;;0.50;;
76167;SDS011;64927;48.214;16.378;2023-08-30T00:19:58;0.70;;;0.70;;
76167;SDS011;64927;48.214;16.378;2023-08-30T00:22:26;0.47;;;0.47;;
76167;SDS011;64927;48.214;16.378;2023-08-30T00:24:53;0.85;;;0.70;;
76167;SDS011;64927;48.214;16.378;2023-08-30T00:27:19;0.55;;;0.47;;
76167;SDS011;64927;48.214;16.378;2023-08-30T00:29:47;0.90;;;0.55;;
76167;SDS011;64927;48.214;16.378;2023-08-30T00:32:15;0.63;;;0.55;;
76167;SDS011;64927;48.214;16.378;2023-08-30T00:34:40;1.77;;;0.50;;
76167;SDS011;64927;48.214;16.378;2023-08-30T00:37:10;0.55;;;0.50;;
76167;SDS011;64927;48.214;16.378;2023-08-30T00:39:39;0.52;;;0.52;;
76167;SDS011;64927;48.214;16.378;2023-08-30T00:42:05;0.40;;;0.40;;
76167;SDS011;64927;48.214;16.378;2023-08-30T00:44:32;1.35;;;0.70;;
76167;SDS011;64927;48.214;16.378;2023-08-30T00:46:59;0.73;;;0.60;;
76167;SDS011;64927;48.214;16.378;2023-08-30T00:49:26;1.80;;;0.80;;
76167;SDS011;64927;48.214;16.378;2023-08-30T00:51:52;0.73;;;0.73;;
76167;SDS011;64927;48.214;16.378;2023-08-30T00:54:21;0.85;;;0.70;;
76167;SDS011;64927;48.214;16.378;2023-08-30T00:56:49;0.32;;;0.32;;
76167;SDS011;64927;48.214;16.378;2023-08-30T00:59:15;0.77;;;0.70;;
76167;SDS011;64927;48.214;16.378;2023-08-30T01:01:41;0.50;;;0.50;;
76167;SDS011;64927;48.214;16.378;2023-08-30T01:04:10;2.15;;;0.90;;
76167;SDS011;64927;48.214;16.378;2023-08-30T01:06:36;2.13;;;0.50;;
76167;SDS011;64927;48.214;16.378;2023-08-30T01:09:02;0.60;;;0.57;;
76167;SDS011;64927;48.214;16.378;2023-08-30T01:11:52;0.65;;;0.50;;
76167;SDS011;64927;48.214;16.378;2023-08-30T01:14:18;0.52;;;0.50;;
76167;SDS011;64927;48.214;16.378;2023-08-30T01:16:47;0.75;;;0.70;;
76167;SDS011;64927;48.214;16.378;2023-08-30T01:24:32;0.90;;;0.70;;
76167;SDS011;64927;48.214;16.378;2023-08-30T01:27:21;0.65;;;0.57;;
76167;SDS011;64927;48.214;16.378;2023-08-30T01:29:48;0.52;;;0.50;;
76167;SDS011;64927;48.214;16.378;2023-08-30T01:32:15;0.47;;;0.47;;
76167;SDS011;64927;48.214;16.378;2023-08-30T01:34:41;1.15;;;0.75;;
76167;SDS011;64927;48.214;16.378;2023-08-30T01:37:08;0.50;;;0.50;;
76167;SDS011;64927;48.214;16.378;2023-08-30T01:39:36;0.82;;;0.60;;
76167;SDS011;64927;48.214;16.378;2023-08-30T01:42:05;1.08;;;0.50;;
76167;SDS011;64927;48.214;16.378;2023-08-30T01:44:32;0.40;;;0.40;;
76167;SDS011;64927;48.214;16.378;2023-08-30T01:47:00;0.60;;;0.57;;
76167;SDS011;64927;48.214;16.378;2023-08-30T01:49:29;0.77;;;0.70;;
76167;SDS011;64927;48.214;16.378;2023-08-30T01:51:59;0.68;;;0.57;;
76167;SDS011;64927;48.214;16.378;2023-08-30T01:54:26;0.80;;;0.52;;
76167;SDS011;64927;48.214;16.378;2023-08-30T01:56:53;0.88;;;0.60;;
76167;SDS011;64927;48.214;16.378;2023-08-30T01:59:19;0.32;;;0.32;;
76167;SDS011;64927;48.214;16.378;2023-08-30T02:01:45;1.25;;;0.80;;
76167;SDS011;64927;48.214;16.378;2023-08-30T02:04:12;0.70;;;0.70;;
76167;SDS011;64927;48.214;16.378;2023-08-30T02:09:57;1.85;;;0.85;;
76167;SDS011;64927;48.214;16.378;2023-08-30T02:12:22;1.38;;;0.52;;
76167;SDS011;64927;48.214;16.378;2023-08-30T02:14:52;0.65;;;0.60;;
76167;SDS011;64927;48.214;16.378;2023-08-30T02:17:21;1.17;;;0.82;;
76167;SDS011;64927;48.214;16.378;2023-08-30T02:19:51;0.30;;;0.30;;
76167;SDS011;64927;48.214;16.378;2023-08-30T02:22:18;0.73;;;0.70;;
76167;SDS011;64927;48.214;16.378;2023-08-30T02:24:44;0.93;;;0.80;;
76167;SDS011;64927;48.214;16.378;2023-08-30T02:27:10;0.85;;;0.77;;
76167;SDS011;64927;48.214;16.378;2023-08-30T02:29:38;1.08;;;0.82;;
76167;SDS011;64927;48.214;16.378;2023-08-30T02:32:03;0.70;;;0.55;;
76167;SDS011;64927;48.214;16.378;2023-08-30T02:34:30;1.25;;;0.77;;
76167;SDS011;64927;48.214;16.378;2023-08-30T02:36:55;0.98;;;0.80;;
76167;SDS011;64927;48.214;16.378;2023-08-30T02:39:24;0.80;;;0.80;;
76167;SDS011;64927;48.214;16.378;2023-08-30T02:41:50;0.93;;;0.80;;
76167;SDS011;64927;48.214;16.378;2023-08-30T02:44:15;0.93;;;0.65;;
76167;SDS011;64927;48.214;16.378;2023-08-30T02:46:41;1.20;;;0.95;;
76167;SDS011;64927;48.214;16.378;2023-08-30T02:49:07;0.82;;;0.82;;
76167;SDS011;64927;48.214;16.378;2023-08-30T02:51:34;0.65;;;0.50;;
76167;SDS011;64927;48.214;16.378;2023-08-30T02:53:59;0.82;;;0.70;;
76167;SDS011;64927;48.214;16.378;2023-08-30T02:56:25;1.13;;;0.77;;
76167;SDS011;64927;48.214;16.378;2023-08-30T02:58:51;0.93;;;0.65;;
76167;SDS011;64927;48.214;16.378;2023-08-30T03:01:19;1.13;;;0.85;;
76167;SDS011;64927;48.214;16.378;2023-08-30T03:03:47;0.70;;;0.70;;
76167;SDS011;64927;48.214;16.378;2023-08-30T03:06:13;0.40;;;0.40;;
76167;SDS011;64927;48.214;16.378;2023-08-30T03:08:39;1.45;;;1.02;;
76167;SDS011;64927;48.214;16.378;2023-08-30T03:11:12;1.10;;;0.70;;
76167;SDS011;64927;48.214;16.378;2023-08-30T03:13:38;0.63;;;0.50;;
76167;SDS011;64927;48.214;16.378;2023-08-30T03:16:13;0.60;;;0.60;;
76167;SDS011;64927;48.214;16.378;2023-08-30T03:18:44;1.90;;;1.20;;
76167;SDS011;64927;48.214;16.378;2023-08-30T03:21:12;0.88;;;0.68;;
76167;SDS011;64927;48.214;16.378;2023-08-30T03:23:39;0.82;;;0.60;;
76167;SDS011;64927;48.214;16.378;2023-08-30T03:26:12;0.50;;;0.50;;
76167;SDS011;64927;48.214;16.378;2023-08-30T03:28:42;0.73;;;0.60;;
76167;SDS011;64927;48.214;16.378;2023-08-30T03:31:15;0.68;;;0.50;;
76167;SDS011;64927;48.214;16.378;2023-08-30T03:33:42;0.40;;;0.40;;
76167;SDS011;64927;48.214;16.378;2023-08-30T03:36:09;0.95;;;0.73;;
76167;SDS011;64927;48.214;16.378;2023-08-30T03:38:36;0.75;;;0.63;;
76167;SDS011;64927;48.214;16.378;2023-08-30T03:41:05;0.93;;;0.80;;
76167;SDS011;64927;48.214;16.378;2023-08-30T03:43:33;0.82;;;0.60;;
76167;SDS011;64927;48.214;16.378;2023-08-30T03:45:59;0.90;;;0.60;;
76167;SDS011;64927;48.214;16.378;2023-08-30T03:48:26;0.40;;;0.40;;
76167;SDS011;64927;48.214;16.378;2023-08-30T03:50:52;1.17;;;0.70;;
76167;SDS011;64927;48.214;16.378;2023-08-30T03:53:19;0.65;;;0.60;;
76167;SDS011;64927;48.214;16.378;2023-08-30T03:55:44;0.50;;;0.40;;
76167;SDS011;64927;48.214;16.378;2023-08-30T03:58:10;0.60;;;0.50;;
76167;SDS011;64927;48.214;16.378;2023-08-30T04:00:36;0.70;;;0.70;;
76167;SDS011;64927;48.214;16.378;2023-08-30T04:03:02;0.52;;;0.52;;
76167;SDS011;64927;48.214;16.378;2023-08-30T04:05:35;0.70;;;0.52;;
76167;SDS011;64927;48.214;16.378;2023-08-30T04:08:02;2.08;;;0.57;;
76167;SDS011;64927;48.214;16.378;2023-08-30T04:10:38;0.75;;;0.57;;
76167;SDS011;64927;48.214;16.378;2023-08-30T04:13:07;1.00;;;0.80;;
76167;SDS011;64927;48.214;16.378;2023-08-30T04:15:34;1.20;;;0.82;;
76167;SDS011;64927;48.214;16.378;2023-08-30T04:18:03;0.60;;;0.60;;
76167;SDS011;64927;48.214;16.378;2023-08-30T04:20:29;1.75;;;0.65;;
76167;SDS011;64927;48.214;16.378;2023-08-30T04:22:55;1.13;;;0.77;;
76167;SDS011;64927;48.214;16.378;2023-08-30T04:25:23;1.05;;;0.77;;
76167;SDS011;64927;48.214;16.378;2023-08-30T04:27:48;1.30;;;0.80;;
76167;SDS011;64927;48.214;16.378;2023-08-30T04:30:15;0.88;;;0.70;;
76167;SDS011;64927;48.214;16.378;2023-08-30T04:32:41;1.33;;;1.00;;
76167;SDS011;64927;48.214;16.378;2023-08-30T04:35:07;1.40;;;0.93;;
76167;SDS011;64927;48.214;16.378;2023-08-30T04:37:33;4.57;;;1.67;;
76167;SDS011;64927;48.214;16.378;2023-08-30T04:39:58;4.07;;;1.50;;
76167;SDS011;64927;48.214;16.378;2023-08-30T04:42:24;1.13;;;0.85;;
76167;SDS011;64927;48.214;16.378;2023-08-30T04:44:52;1.63;;;0.95;;
76167;SDS011;64927;48.214;16.378;2023-08-30T04:47:22;1.10;;;0.80;;
76167;SDS011;64927;48.214;16.378;2023-08-30T04:49:51;1.83;;;1.00;;
76167;SDS011;64927;48.214;16.378;2023-08-30T04:52:17;0.75;;;0.63;;
76167;SDS011;64927;48.214;16.378;2023-08-30T04:54:45;1.33;;;1.10;;
76167;SDS011;64927;48.214;16.378;2023-08-30T04:57:11;1.75;;;1.20;;
76167;SDS011;64927;48.214;16.378;2023-08-30T04:59:42;1.67;;;1.20;;
76167;SDS011;64927;48.214;16.378;2023-08-30T05:02:09;1.15;;;0.98;;
76167;SDS011;64927;48.214;16.378;2023-08-30T05:04:34;1.05;;;0.90;;
76167;SDS011;64927;48.214;16.378;2023-08-30T05:07:00;2.13;;;1.20;;
76167;SDS011;64927;48.214;16.378;2023-08-30T05:09:26;1.60;;;1.20;;
76167;SDS011;64927;48.214;16.378;2023-08-30T05:11:52;2.67;;;1.83;;
76167;SDS011;64927;48.214;16.378;2023-08-30T05:14:18;2.20;;;1.52;;
76167;SDS011;64927;48.214;16.378;2023-08-30T05:16:44;1.02;;;0.95;;
76167;SDS011;64927;48.214;16.378;2023-08-30T05:19:13;1.70;;;1.20;;
76167;SDS011;64927;48.214;16.378;2023-08-30T05:21:39;1.88;;;1.25;;
76167;SDS011;64927;48.214;16.378;2023-08-30T05:24:04;1.55;;;1.10;;
76167;SDS011;64927;48.214;16.378;2023-08-30T05:26:33;1.38;;;1.27;;
76167;SDS011;64927;48.214;16.378;2023-08-30T05:29:01;2.22;;;1.52;;
76167;SDS011;64927;48.214;16.378;2023-08-30T05:31:27;2.13;;;1.13;;
76167;SDS011;64927;48.214;16.378;2023-08-30T05:33:52;1.48;;;1.20;;
76167;SDS011;64927;48.214;16.378;2023-08-30T05:36:20;2.28;;;1.25;;
76167;SDS011;64927;48.214;16.378;2023-08-30T05:38:46;1.73;;;1.17;;
76167;SDS011;64927;48.214;16.378;2023-08-30T05:41:14;2.08;;;1.30;;
76167;SDS011;64927;48.214;16.378;2023-08-30T05:43:39;1.45;;;1.10;;
76167;SDS011;64927;48.214;16.378;2023-08-30T05:46:08;1.65;;;1.25;;
76167;SDS011;64927;48.214;16.378;2023-08-30T05:48:39;2.05;;;1.23;;
76167;SDS011;64927;48.214;16.378;2023-08-30T05:51:05;2.22;;;1.20;;
76167;SDS011;64927;48.214;16.378;2023-08-30T05:53:30;2.20;;;1.42;;
76167;SDS011;64927;48.214;16.378;2023-08-30T05:55:56;1.42;;;1.30;;
76167;SDS011;64927;48.214;16.378;2023-08-30T05:58:22;1.92;;;1.23;;
76167;SDS011;64927;48.214;16.378;2023-08-30T06:00:47;1.88;;;1.45;;
76167;SDS011;64927;48.214;16.378;2023-08-30T06:03:13;1.75;;;1.05;;
76167;SDS011;64927;48.214;16.378;2023-08-30T06:05:38;2.90;;;1.35;;
76167;SDS011;64927;48.214;16.378;2023-08-30T06:08:04;1.42;;;1.30;;
76167;SDS011;64927;48.214;16.378;2023-08-30T06:10:30;2.08;;;1.17;;
76167;SDS011;64927;48.214;16.378;2023-08-30T06:12:55;1.92;;;1.40;;
76167;SDS011;64927;48.214;16.378;2023-08-30T06:15:24;4.30;;;1.40;;
76167;SDS011;64927;48.214;16.378;2023-08-30T06:17:52;8.55;;;2.28;;
76167;SDS011;64927;48.214;16.378;2023-08-30T06:20:18;1.35;;;1.10;;
76167;SDS011;64927;48.214;16.378;2023-08-30T06:22:44;1.80;;;1.20;;
76167;SDS011;64927;48.214;16.378;2023-08-30T06:25:10;1.23;;;1.02;;
76167;SDS011;64927;48.214;16.378;2023-08-30T06:27:42;1.40;;;1.20;;
76167;SDS011;64927;48.214;16.378;2023-08-30T06:30:20;2.58;;;1.33;;
76167;SDS011;64927;48.214;16.378;2023-08-30T06:32:45;2.20;;;1.30;;
76167;SDS011;64927;48.214;16.378;2023-08-30T06:35:11;1.10;;;1.00;;
76167;SDS011;64927;48.214;16.378;2023-08-30T06:37:37;2.25;;;1.20;;
76167;SDS011;64927;48.214;16.378;2023-08-30T06:40:02;1.58;;;1.20;;
76167;SDS011;64927;48.214;16.378;2023-08-30T06:42:31;1.20;;;1.02;;
76167;SDS011;64927;48.214;16.378;2023-08-30T06:44:56;1.30;;;0.80;;
76167;SDS011;64927;48.214;16.378;2023-08-30T06:47:22;0.93;;;0.85;;
76167;SDS011;64927;48.214;16.378;2023-08-30T06:49:47;1.45;;;1.10;;
76167;SDS011;64927;48.214;16.378;2023-08-30T06:52:13;1.38;;;1.20;;
76167;SDS011;64927;48.214;16.378;2023-08-30T06:54:39;1.15;;;1.02;;
76167;SDS011;64927;48.214;16.378;2023-08-30T06:57:04;1.38;;;1.20;;
76167;SDS011;64927;48.214;16.378;2023-08-30T06:59:36;1.10;;;1.00;;
76167;SDS011;64927;48.214;16.378;2023-08-30T07:02:02;1.50;;;1.05;;
76167;SDS011;64927;48.214;16.378;2023-08-30T07:04:28;1.13;;;1.02;;
76167;SDS011;64927;48.214;16.378;2023-08-30T07:06:54;3.05;;;0.68;;
76167;SDS011;64927;48.214;16.378;2023-08-30T07:09:22;1.42;;;0.88;;
76167;SDS011;64927;48.214;16.378;2023-08-30T07:11:54;1.75;;;0.75;;
76167;SDS011;64927;48.214;16.378;2023-08-30T07:14:20;1.10;;;1.00;;
76167;SDS011;64927;48.214;16.378;2023-08-30T07:16:46;2.75;;;1.60;;
76167;SDS011;64927;48.214;16.378;2023-08-30T07:19:15;1.67;;;0.98;;
76167;SDS011;64927;48.214;16.378;2023-08-30T07:21:41;2.50;;;1.30;;
76167;SDS011;64927;48.214;16.378;2023-08-30T07:24:09;1.75;;;1.20;;
76167;SDS011;64927;48.214;16.378;2023-08-30T07:26:35;1.20;;;0.93;;
76167;SDS011;64927;48.214;16.378;2023-08-30T07:29:04;1.20;;;0.95;;
76167;SDS011;64927;48.214;16.378;2023-08-30T07:31:33;1.35;;;0.90;;
76167;SDS011;64927;48.214;16.378;2023-08-30T07:34:01;1.10;;;1.00;;
76167;SDS011;64927;48.214;16.378;2023-08-30T07:36:27;3.25;;;0.93;;
76167;SDS011;64927;48.214;16.378;2023-08-30T07:38:57;1.95;;;1.30;;
76167;SDS011;64927;48.214;16.378;2023-08-30T07:41:25;2.38;;;1.00;;
76167;SDS011;64927;48.214;16.378;2023-08-30T07:43:53;1.67;;;1.00;;
76167;SDS011;64927;48.214;16.378;2023-08-30T07:46:19;0.77;;;0.70;;
76167;SDS011;64927;48.214;16.378;2023-08-30T07:48:44;1.42;;;0.93;;
76167;SDS011;64927;48.214;16.378;2023-08-30T07:51:10;0.60;;;0.60;;
76167;SDS011;64927;48.214;16.378;2023-08-30T07:53:36;0.77;;;0.77;;
76167;SDS011;64927;48.214;16.378;2023-08-30T07:56:01;0.60;;;0.57;;
76167;SDS011;64927;48.214;16.378;2023-08-30T07:58:29;0.80;;;0.70;;
76167;SDS011;64927;48.214;16.378;2023-08-30T08:00:59;0.50;;;0.50;;
76167;SDS011;64927;48.214;16.378;2023-08-30T08:03:25;1.00;;;0.60;;
76167;SDS011;64927;48.214;16.378;2023-08-30T08:05:51;0.80;;;0.60;;
76167;SDS011;64927;48.214;16.378;2023-08-30T08:08:18;0.40;;;0.40;;
76167;SDS011;64927;48.214;16.378;2023-08-30T08:10:44;1.35;;;0.90;;
76167;SDS011;64927;48.214;16.378;2023-08-30T08:13:10;1.02;;;0.70;;
76167;SDS011;64927;48.214;16.378;2023-08-30T08:15:37;0.70;;;0.70;;
76167;SDS011;64927;48.214;16.378;2023-08-30T08:18:03;0.88;;;0.65;;
76167;SDS011;64927;48.214;16.378;2023-08-30T08:20:29;0.85;;;0.70;;
76167;SDS011;64927;48.214;16.378;2023-08-30T08:22:55;2.67;;;1.17;;
76167;SDS011;64927;48.214;16.378;2023-08-30T08:25:21;0.77;;;0.63;;
76167;SDS011;64927;48.214;16.378;2023-08-30T08:27:48;0.80;;;0.70;;
76167;SDS011;64927;48.214;16.378;2023-08-30T08:30:15;0.68;;;0.57;;
76167;SDS011;64927;48.214;16.378;2023-08-30T08:32:41;0.68;;;0.68;;
76167;SDS011;64927;48.214;16.378;2023-08-30T08:35:08;0.50;;;0.50;;
76167;SDS011;64927;48.214;16.378;2023-08-30T08:37:34;0.40;;;0.40;;
76167;SDS011;64927;48.214;16.378;2023-08-30T08:40:02;0.85;;;0.50;;
76167;SDS011;64927;48.214;16.378;2023-08-30T08:42:33;1.00;;;0.65;;
76167;SDS011;64927;48.214;16.378;2023-08-30T08:45:00;0.57;;;0.30;;
76167;SDS011;64927;48.214;16.378;2023-08-30T08:47:32;0.70;;;0.70;;
76167;SDS011;64927;48.214;16.378;2023-08-30T08:49:58;1.15;;;0.80;;
76167;SDS011;64927;48.214;16.378;2023-08-30T08:52:25;0.70;;;0.57;;
76167;SDS011;64927;48.214;16.378;2023-08-30T08:54:54;0.40;;;0.40;;
76167;SDS011;64927;48.214;16.378;2023-08-30T08:57:22;1.13;;;0.65;;
76167;SDS011;64927;48.214;16.378;2023-08-30T08:59:48;0.32;;;0.32;;
76167;SDS011;64927;48.214;16.378;2023-08-30T09:02:15;0.73;;;0.52;;
76167;SDS011;64927;48.214;16.378;2023-08-30T09:04:41;0.52;;;0.43;;
76167;SDS011;64927;48.214;16.378;2023-08-30T09:07:12;0.82;;;0.43;;
76167;SDS011;64927;48.214;16.378;2023-08-30T09:09:41;0.38;;;0.30;;
76167;SDS011;64927;48.214;16.378;2023-08-30T09:12:06;0.25;;;0.25;;
76167;SDS011;64927;48.214;16.378;2023-08-30T09:14:32;0.40;;;0.40;;
76167;SDS011;64927;48.214;16.378;2023-08-30T09:16:58;0.40;;;0.40;;
76167;SDS011;64927;48.214;16.378;2023-08-30T09:19:28;0.30;;;0.30;;
76167;SDS011;64927;48.214;16.378;2023-08-30T09:21:57;0.38;;;0.30;;
76167;SDS011;64927;48.214;16.378;2023-08-30T09:24:24;0.30;;;0.30;;
76167;SDS011;64927;48.214;16.378;2023-08-30T09:26:50;0.15;;;0.15;;
76167;SDS011;64927;48.214;16.378;2023-08-30T09:29:19;0.47;;;0.47;;
76167;SDS011;64927;48.214;16.378;2023-08-30T09:31:50;0.55;;;0.50;;
76167;SDS011;64927;48.214;16.378;2023-08-30T09:34:16;0.55;;;0.50;;
76167;SDS011;64927;48.214;16.378;2023-08-30T09:36:46;0.55;;;0.35;;
76167;SDS011;64927;48.214;16.378;2023-08-30T09:39:15;0.28;;;0.28;;
76167;SDS011;64927;48.214;16.378;2023-08-30T09:41:41;0.57;;;0.30;;
76167;SDS011;64927;48.214;16.378;2023-08-30T09:44:11;0.50;;;0.50;;
76167;SDS011;64927;48.214;16.378;2023-08-30T09:46:41;0.30;;;0.30;;
76167;SDS011;64927;48.214;16.378;2023-08-30T09:49:12;0.45;;;0.40;;
76167;SDS011;64927;48.214;16.378;2023-08-30T09:51:38;0.30;;;0.30;;
76167;SDS011;64927;48.214;16.378;2023-08-30T09:54:13;0.20;;;0.20;;
76167;SDS011;64927;48.214;16.378;2023-08-30T09:56:42;0.20;;;0.20;;
76167;SDS011;64927;48.214;16.378;2023-08-30T09:59:10;0.60;;;0.60;;
76167;SDS011;64927;48.214;16.378;2023-08-30T10:01:36;0.35;;;0.32;;
76167;SDS011;64927;48.214;16.378;2023-08-30T10:04:03;0.20;;;0.20;;
76167;SDS011;64927;48.214;16.378;2023-08-30T10:06:29;0.35;;;0.35;;
76167;SDS011;64927;48.214;16.378;2023-08-30T10:08:58;0.13;;;0.13;;
76167;SDS011;64927;48.214;16.378;2023-08-30T10:11:24;0.30;;;0.30;;
76167;SDS011;64927;48.214;16.378;2023-08-30T10:13:54;0.43;;;0.30;;
76167;SDS011;64927;48.214;16.378;2023-08-30T10:16:22;0.38;;;0.38;;
76167;SDS011;64927;48.214;16.378;2023-08-30T10:18:50;0.77;;;0.57;;
76167;SDS011;64927;48.214;16.378;2023-08-30T10:21:19;0.55;;;0.25;;
76167;SDS011;64927;48.214;16.378;2023-08-30T10:23:47;0.30;;;0.30;;
76167;SDS011;64927;48.214;16.378;2023-08-30T10:26:20;0.30;;;0.30;;
76167;SDS011;64927;48.214;16.378;2023-08-30T10:28:48;0.40;;;0.40;;
76167;SDS011;64927;48.214;16.378;2023-08-30T10:31:16;0.88;;;0.50;;
76167;SDS011;64927;48.214;16.378;2023-08-30T10:34:17;0.20;;;0.17;;
76167;SDS011;64927;48.214;16.378;2023-08-30T10:36:42;0.88;;;0.82;;
76167;SDS011;64927;48.214;16.378;2023-08-30T10:39:12;0.82;;;0.40;;
76167;SDS011;64927;48.214;16.378;2023-08-30T10:41:41;1.38;;;0.30;;
76167;SDS011;64927;48.214;16.378;2023-08-30T10:44:20;0.30;;;0.30;;
76167;SDS011;64927;48.214;16.378;2023-08-30T10:46:51;0.28;;;0.25;;
76167;SDS011;64927;48.214;16.378;2023-08-30T10:49:20;0.80;;;0.52;;
76167;SDS011;64927;48.214;16.378;2023-08-30T10:51:55;0.60;;;0.60;;
76167;SDS011;64927;48.214;16.378;2023-08-30T10:54:26;0.50;;;0.43;;
76167;SDS011;64927;48.214;16.378;2023-08-30T10:57:03;0.17;;;0.17;;
76167;SDS011;64927;48.214;16.378;2023-08-30T10:59:29;0.35;;;0.30;;
76167;SDS011;64927;48.214;16.378;2023-08-30T11:01:55;0.52;;;0.43;;
76167;SDS011;64927;48.214;16.378;2023-08-30T11:04:26;0.45;;;0.45;;
76167;SDS011;64927;48.214;16.378;2023-08-30T11:06:54;0.20;;;0.20;;
76167;SDS011;64927;48.214;16.378;2023-08-30T11:09:21;0.30;;;0.28;;
76167;SDS011;64927;48.214;16.378;2023-08-30T11:11:49;0.35;;;0.30;;
76167;SDS011;64927;48.214;16.378;2023-08-30T11:14:15;0.20;;;0.20;;
76167;SDS011;64927;48.214;16.378;2023-08-30T11:16:42;0.55;;;0.55;;
76167;SDS011;64927;48.214;16.378;2023-08-30T11:19:09;0.20;;;0.20;;
76167;SDS011;64927;48.214;16.378;2023-08-30T11:21:42;0.80;;;0.30;;
76167;SDS011;64927;48.214;16.378;2023-08-30T11:24:09;0.85;;;0.45;;
76167;SDS011;64927;48.214;16.378;2023-08-30T11:26:35;0.52;;;0.28;;
76167;SDS011;64927;48.214;16.378;2023-08-30T11:29:04;0.40;;;0.40;;
76167;SDS011;64927;48.214;16.378;2023-08-30T11:31:33;0.55;;;0.38;;
76167;SDS011;64927;48.214;16.378;2023-08-30T11:33:59;0.30;;;0.30;;
76167;SDS011;64927;48.214;16.378;2023-08-30T11:36:29;0.25;;;0.25;;
76167;SDS011;64927;48.214;16.378;2023-08-30T11:38:56;0.28;;;0.28;;
76167;SDS011;64927;48.214;16.378;2023-08-30T11:41:22;0.22;;;0.22;;
76167;SDS011;64927;48.214;16.378;2023-08-30T11:43:48;0.20;;;0.20;;
76167;SDS011;64927;48.214;16.378;2023-08-30T11:46:14;0.93;;;0.75;;
76167;SDS011;64927;48.214;16.378;2023-08-30T11:48:44;0.38;;;0.38;;
76167;SDS011;64927;48.214;16.378;2023-08-30T11:51:11;1.17;;;0.63;;
76167;SDS011;64927;48.214;16.378;2023-08-30T11:53:38;0.63;;;0.30;;
76167;SDS011;64927;48.214;16.378;2023-08-30T11:56:05;0.20;;;0.20;;
76167;SDS011;64927;48.214;16.378;2023-08-30T11:58:34;0.57;;;0.43;;
76167;SDS011;64927;48.214;16.378;2023-08-30T12:01:00;0.43;;;0.40;;
76167;SDS011;64927;48.214;16.378;2023-08-30T12:03:27;0.57;;;0.52;;
76167;SDS011;64927;48.214;16.378;2023-08-30T12:05:53;0.52;;;0.47;;
76167;SDS011;64927;48.214;16.378;2023-08-30T12:10:46;0.40;;;0.30;;
76167;SDS011;64927;48.214;16.378;2023-08-30T12:13:33;0.73;;;0.65;;
76167;SDS011;64927;48.214;16.378;2023-08-30T12:16:01;0.40;;;0.40;;
76167;SDS011;64927;48.214;16.378;2023-08-30T12:18:29;0.57;;;0.57;;
76167;SDS011;64927;48.214;16.378;2023-08-30T12:23:24;3.15;;;1.60;;
76167;SDS011;64927;48.214;16.378;2023-08-30T12:28:30;1.00;;;0.55;;
76167;SDS011;64927;48.214;16.378;2023-08-30T12:30:57;0.95;;;0.50;;
76167;SDS011;64927;48.214;16.378;2023-08-30T12:33:23;0.85;;;0.70;;
76167;SDS011;64927;48.214;16.378;2023-08-30T12:35:53;0.77;;;0.70;;
76167;SDS011;64927;48.214;16.378;2023-08-30T12:38:20;0.70;;;0.40;;
76167;SDS011;64927;48.214;16.378;2023-08-30T12:40:46;0.73;;;0.60;;
76167;SDS011;64927;48.214;16.378;2023-08-30T12:43:13;0.80;;;0.55;;
76167;SDS011;64927;48.214;16.378;2023-08-30T12:45:40;0.73;;;0.40;;
76167;SDS011;64927;48.214;16.378;2023-08-30T12:48:06;0.35;;;0.35;;
76167;SDS011;64927;48.214;16.378;2023-08-30T12:50:33;0.60;;;0.50;;
76167;SDS011;64927;48.214;16.378;2023-08-30T12:53:00;0.80;;;0.70;;
76167;SDS011;64927;48.214;16.378;2023-08-30T12:55:26;1.38;;;1.20;;
76167;SDS011;64927;48.214;16.378;2023-08-30T12:57:55;0.40;;;0.40;;
76167;SDS011;64927;48.214;16.378;2023-08-30T13:00:20;0.57;;;0.40;;
76167;SDS011;64927;48.214;16.378;2023-08-30T13:02:47;0.40;;;0.40;;
76167;SDS011;64927;48.214;16.378;2023-08-30T13:05:13;0.93;;;0.60;;
76167;SDS011;64927;48.214;16.378;2023-08-30T13:07:38;0.45;;;0.40;;
76167;SDS011;64927;48.214;16.378;2023-08-30T13:10:05;0.40;;;0.30;;
76167;SDS011;64927;48.214;16.378;2023-08-30T13:12:31;0.47;;;0.43;;
76167;SDS011;64927;48.214;16.378;2023-08-30T13:14:57;0.50;;;0.45;;
76167;SDS011;64927;48.214;16.378;2023-08-30T13:17:23;1.30;;;0.85;;
76167;SDS011;64927;48.214;16.378;2023-08-30T13:19:49;0.63;;;0.50;;
76167;SDS011;64927;48.214;16.378;2023-08-30T13:22:14;0.40;;;0.40;;
76167;SDS011;64927;48.214;16.378;2023-08-30T13:24:40;0.50;;;0.50;;
76167;SDS011;64927;48.214;16.378;2023-08-30T13:27:06;3.75;;;2.63;;
76167;SDS011;64927;48.214;16.378;2023-08-30T13:29:32;0.70;;;0.70;;
76167;SDS011;64927;48.214;16.378;2023-08-30T13:31:58;0.30;;;0.30;;
76167;SDS011;64927;48.214;16.378;2023-08-30T13:34:26;0.20;;;0.20;;
76167;SDS011;64927;48.214;16.378;2023-08-30T13:36:56;0.25;;;0.25;;
76167;SDS011;64927;48.214;16.378;2023-08-30T13:39:25;0.63;;;0.50;;
76167;SDS011;64927;48.214;16.378;2023-08-30T13:41:52;0.73;;;0.40;;
76167;SDS011;64927;48.214;16.378;2023-08-30T13:44:18;0.47;;;0.40;;
76167;SDS011;64927;48.214;16.378;2023-08-30T13:46:46;0.65;;;0.55;;
76167;SDS011;64927;48.214;16.378;2023-08-30T13:49:15;0.40;;;0.40;;
76167;SDS011;64927;48.214;16.378;2023-08-30T13:51:43;0.40;;;0.32;;
76167;SDS011;64927;48.214;16.378;2023-08-30T13:54:14;0.55;;;0.40;;
76167;SDS011;64927;48.214;16.378;2023-08-30T13:56:40;0.20;;;0.20;;
76167;SDS011;64927;48.214;16.378;2023-08-30T13:59:18;0.50;;;0.50;;
76167;SDS011;64927;48.214;16.378;2023-08-30T14:01:45;0.60;;;0.60;;
76167;SDS011;64927;48.214;16.378;2023-08-30T14:04:11;1.55;;;0.63;;
76167;SDS011;64927;48.214;16.378;2023-08-30T14:06:36;0.25;;;0.20;;
76167;SDS011;64927;48.214;16.378;2023-08-30T14:09:02;0.70;;;0.22;;
76167;SDS011;64927;48.214;16.378;2023-08-30T14:11:30;0.22;;;0.22;;
76167;SDS011;64927;48.214;16.378;2023-08-30T14:13:56;1.00;;;0.60;;
76167;SDS011;64927;48.214;16.378;2023-08-30T14:16:22;0.50;;;0.50;;
76167;SDS011;64927;48.214;16.378;2023-08-30T14:18:49;0.50;;;0.30;;
76167;SDS011;64927;48.214;16.378;2023-08-30T14:21:14;0.20;;;0.20;;
76167;SDS011;64927;48.214;16.378;2023-08-30T14:23:40;0.25;;;0.25;;
76167;SDS011;64927;48.214;16.378;2023-08-30T14:26:07;0.20;;;0.20;;
76167;SDS011;64927;48.214;16.378;2023-08-30T14:28:38;0.70;;;0.50;;
76167;SDS011;64927;48.214;16.378;2023-08-30T14:31:06;0.52;;;0.43;;
76167;SDS011;64927;48.214;16.378;2023-08-30T14:33:42;0.40;;;0.40;;
76167;SDS011;64927;48.214;16.378;2023-08-30T14:36:12;0.45;;;0.45;;
76167;SDS011;64927;48.214;16.378;2023-08-30T14:38:38;0.25;;;0.25;;
76167;SDS011;64927;48.214;16.378;2023-08-30T14:41:06;0.50;;;0.40;;
76167;SDS011;64927;48.214;16.378;2023-08-30T14:43:32;0.32;;;0.20;;
76167;SDS011;64927;48.214;16.378;2023-08-30T14:46:02;0.47;;;0.40;;
76167;SDS011;64927;48.214;16.378;2023-08-30T14:48:31;0.38;;;0.30;;
76167;SDS011;64927;48.214;16.378;2023-08-30T14:50:58;0.32;;;0.30;;